AG5DB-7 messages


fromtotime message
TA5AJC-10 AG5DB-7 04/08 14:23:54z Reply HELLO FROM TURKEY.HAVE NICE DAY.MY NAME IS NOYAN TURKISH STATION 73{12
AG5DB-7 KB6LTY-3 04/08 01:03:06z Send another Tnx QSL! EM15 OKTnx QSL! EM15 OK{52
EMAIL AG5DB-7 03/19 02:16:30z Reply Email sent to mkleine@live.com{1058
AG5DB-7 EMAIL 03/19 02:16:30z Send another mkleine@live.com AG5DB via ISS relay{48
WXBOT AG5DB-7 03/18 04:25:50z Reply 0023{WL
WXBOT AG5DB-7 03/18 04:25:45z Reply KOUN 180355Z AUTO 32020KT 10SM -DZ OVC014 04/02 A2996 RMK AO2 T0042{WK
WXBOT AG5DB-7 03/18 04:23:29z Reply 0023{WJ
WXBOT AG5DB-7 03/18 04:23:10z Reply KOUN 180355Z AUTO 32020KT 10SM -DZ OVC014 04/02 A2996 RMK AO2 T0042{WI
AG5DB-7 WXBOT 03/18 04:23:05z Send another koun{41
WXBOT AG5DB-7 03/17 23:37:06z Reply KOUN 172245Z 30022G36KT 4SM -RA BR OVC012 06/04 A2977{VU
AG5DB-7 WXBOT 03/17 23:37:01z Send another koun{40
EMAIL AG5DB-7 03/17 06:59:20z Reply Email sent to mkleine@live.com{1282
AG5DB-7 EMAIL 03/17 06:58:39z Send another mkleine@live.com AG5DB via aprs{39
AG5DB-7 KE4AZZ 03/17 02:40:41z Send another Rx'd ur ISS msg! 73 de Peter
AG5DB-7 NA1SS 03/17 02:11:56z Send another 73, de Peter{29
KE4AZZ AG5DB-7 03/17 02:10:36z Reply de KE4AZZ via International Space Station